sensor_id;sensor_type;location;lat;lon;timestamp;P1;durP1;ratioP1;P2;durP2;ratioP2
58242;SDS011;50118;53.232;8.252;2023-08-01T00:02:05;11.48;;;7.50;;
58242;SDS011;50118;53.232;8.252;2023-08-01T00:04:31;10.73;;;7.88;;
58242;SDS011;50118;53.232;8.252;2023-08-01T00:07:21;11.25;;;7.72;;
58242;SDS011;50118;53.232;8.252;2023-08-01T00:09:46;10.80;;;7.78;;
58242;SDS011;50118;53.232;8.252;2023-08-01T00:12:12;11.63;;;8.07;;
58242;SDS011;50118;53.232;8.252;2023-08-01T00:14:40;10.40;;;7.82;;
58242;SDS011;50118;53.232;8.252;2023-08-01T00:17:32;10.10;;;7.93;;
58242;SDS011;50118;53.232;8.252;2023-08-01T00:19:57;14.32;;;8.88;;
58242;SDS011;50118;53.232;8.252;2023-08-01T00:22:23;13.27;;;9.15;;
58242;SDS011;50118;53.232;8.252;2023-08-01T00:24:49;12.05;;;8.80;;
58242;SDS011;50118;53.232;8.252;2023-08-01T00:27:14;14.70;;;9.15;;
58242;SDS011;50118;53.232;8.252;2023-08-01T00:29:40;13.57;;;8.98;;
58242;SDS011;50118;53.232;8.252;2023-08-01T00:32:06;14.73;;;9.30;;
58242;SDS011;50118;53.232;8.252;2023-08-01T00:34:32;15.20;;;9.77;;
58242;SDS011;50118;53.232;8.252;2023-08-01T00:36:57;15.85;;;9.80;;
58242;SDS011;50118;53.232;8.252;2023-08-01T00:39:23;15.23;;;9.32;;
58242;SDS011;50118;53.232;8.252;2023-08-01T00:41:49;12.40;;;9.55;;
58242;SDS011;50118;53.232;8.252;2023-08-01T00:44:14;13.80;;;10.38;;
58242;SDS011;50118;53.232;8.252;2023-08-01T00:46:40;13.23;;;9.88;;
58242;SDS011;50118;53.232;8.252;2023-08-01T00:49:09;16.25;;;10.43;;
58242;SDS011;50118;53.232;8.252;2023-08-01T00:51:44;14.77;;;9.98;;
58242;SDS011;50118;53.232;8.252;2023-08-01T00:54:16;15.18;;;10.93;;
58242;SDS011;50118;53.232;8.252;2023-08-01T00:56:42;14.25;;;9.93;;
58242;SDS011;50118;53.232;8.252;2023-08-01T00:59:09;16.00;;;11.52;;
58242;SDS011;50118;53.232;8.252;2023-08-01T01:02:00;14.95;;;10.65;;
58242;SDS011;50118;53.232;8.252;2023-08-01T01:04:26;14.23;;;10.95;;
58242;SDS011;50118;53.232;8.252;2023-08-01T01:06:57;16.02;;;11.20;;
58242;SDS011;50118;53.232;8.252;2023-08-01T01:09:28;14.85;;;10.80;;
58242;SDS011;50118;53.232;8.252;2023-08-01T01:11:56;18.50;;;11.75;;
58242;SDS011;50118;53.232;8.252;2023-08-01T01:14:22;14.07;;;10.65;;
58242;SDS011;50118;53.232;8.252;2023-08-01T01:17:09;16.08;;;11.57;;
58242;SDS011;50118;53.232;8.252;2023-08-01T01:19:37;15.38;;;11.43;;
58242;SDS011;50118;53.232;8.252;2023-08-01T01:22:20;17.98;;;11.50;;
58242;SDS011;50118;53.232;8.252;2023-08-01T01:24:55;15.88;;;11.43;;
58242;SDS011;50118;53.232;8.252;2023-08-01T01:27:22;15.45;;;11.20;;
58242;SDS011;50118;53.232;8.252;2023-08-01T01:29:49;18.02;;;11.98;;
58242;SDS011;50118;53.232;8.252;2023-08-01T01:32:15;15.65;;;11.35;;
58242;SDS011;50118;53.232;8.252;2023-08-01T01:34:41;16.48;;;11.05;;
58242;SDS011;50118;53.232;8.252;2023-08-01T01:37:25;15.70;;;10.48;;
58242;SDS011;50118;53.232;8.252;2023-08-01T01:39:51;15.32;;;10.80;;
58242;SDS011;50118;53.232;8.252;2023-08-01T01:42:27;15.63;;;9.68;;
58242;SDS011;50118;53.232;8.252;2023-08-01T01:44:52;15.68;;;10.25;;
58242;SDS011;50118;53.232;8.252;2023-08-01T01:47:26;12.70;;;9.57;;
58242;SDS011;50118;53.232;8.252;2023-08-01T01:49:54;14.70;;;9.35;;
58242;SDS011;50118;53.232;8.252;2023-08-01T01:52:19;14.05;;;9.05;;
58242;SDS011;50118;53.232;8.252;2023-08-01T01:54:52;12.85;;;8.30;;
58242;SDS011;50118;53.232;8.252;2023-08-01T01:57:18;12.07;;;8.23;;
58242;SDS011;50118;53.232;8.252;2023-08-01T01:59:46;10.77;;;8.10;;
58242;SDS011;50118;53.232;8.252;2023-08-01T02:02:15;12.18;;;7.85;;
58242;SDS011;50118;53.232;8.252;2023-08-01T02:04:41;11.50;;;7.30;;
58242;SDS011;50118;53.232;8.252;2023-08-01T02:07:06;10.68;;;7.03;;
58242;SDS011;50118;53.232;8.252;2023-08-01T02:09:33;11.52;;;6.75;;
58242;SDS011;50118;53.232;8.252;2023-08-01T02:12:01;10.02;;;7.07;;
58242;SDS011;50118;53.232;8.252;2023-08-01T02:14:27;9.38;;;6.15;;
58242;SDS011;50118;53.232;8.252;2023-08-01T02:16:52;10.55;;;6.60;;
58242;SDS011;50118;53.232;8.252;2023-08-01T02:19:37;11.00;;;6.30;;
58242;SDS011;50118;53.232;8.252;2023-08-01T02:22:31;11.05;;;6.35;;
58242;SDS011;50118;53.232;8.252;2023-08-01T02:25:03;10.60;;;6.50;;
58242;SDS011;50118;53.232;8.252;2023-08-01T02:27:29;11.18;;;6.90;;
58242;SDS011;50118;53.232;8.252;2023-08-01T02:29:55;10.55;;;6.18;;
58242;SDS011;50118;53.232;8.252;2023-08-01T02:32:20;12.40;;;6.18;;
58242;SDS011;50118;53.232;8.252;2023-08-01T02:34:47;9.93;;;5.65;;
58242;SDS011;50118;53.232;8.252;2023-08-01T02:37:31;10.68;;;6.00;;
58242;SDS011;50118;53.232;8.252;2023-08-01T02:39:56;8.63;;;5.43;;
58242;SDS011;50118;53.232;8.252;2023-08-01T02:42:22;10.43;;;5.60;;
58242;SDS011;50118;53.232;8.252;2023-08-01T02:44:47;11.73;;;6.07;;
58242;SDS011;50118;53.232;8.252;2023-08-01T02:47:13;12.50;;;5.65;;
58242;SDS011;50118;53.232;8.252;2023-08-01T02:49:48;10.15;;;5.93;;
58242;SDS011;50118;53.232;8.252;2023-08-01T02:52:23;12.98;;;6.47;;
58242;SDS011;50118;53.232;8.252;2023-08-01T02:54:49;12.45;;;6.80;;
58242;SDS011;50118;53.232;8.252;2023-08-01T02:57:15;10.05;;;6.95;;
58242;SDS011;50118;53.232;8.252;2023-08-01T02:59:41;9.65;;;6.88;;
58242;SDS011;50118;53.232;8.252;2023-08-01T03:02:08;10.32;;;6.60;;
58242;SDS011;50118;53.232;8.252;2023-08-01T03:04:34;12.45;;;7.43;;
58242;SDS011;50118;53.232;8.252;2023-08-01T03:07:00;10.32;;;7.03;;
58242;SDS011;50118;53.232;8.252;2023-08-01T03:12:16;9.73;;;7.53;;
58242;SDS011;50118;53.232;8.252;2023-08-01T03:14:41;14.52;;;8.73;;
58242;SDS011;50118;53.232;8.252;2023-08-01T03:17:08;13.57;;;8.60;;
58242;SDS011;50118;53.232;8.252;2023-08-01T03:19:43;13.95;;;8.88;;
58242;SDS011;50118;53.232;8.252;2023-08-01T03:22:18;13.70;;;8.95;;
58242;SDS011;50118;53.232;8.252;2023-08-01T03:24:43;13.43;;;8.90;;
58242;SDS011;50118;53.232;8.252;2023-08-01T03:27:21;14.25;;;9.95;;
58242;SDS011;50118;53.232;8.252;2023-08-01T03:29:46;16.73;;;10.27;;
58242;SDS011;50118;53.232;8.252;2023-08-01T03:32:12;15.02;;;9.73;;
58242;SDS011;50118;53.232;8.252;2023-08-01T03:34:37;15.90;;;10.63;;
58242;SDS011;50118;53.232;8.252;2023-08-01T03:37:06;16.40;;;10.52;;
58242;SDS011;50118;53.232;8.252;2023-08-01T03:39:32;14.18;;;10.27;;
58242;SDS011;50118;53.232;8.252;2023-08-01T03:41:57;18.38;;;11.07;;
58242;SDS011;50118;53.232;8.252;2023-08-01T03:44:43;16.20;;;9.82;;
58242;SDS011;50118;53.232;8.252;2023-08-01T03:52:50;14.38;;;7.85;;
58242;SDS011;50118;53.232;8.252;2023-08-01T03:55:16;12.65;;;7.35;;
58242;SDS011;50118;53.232;8.252;2023-08-01T03:57:48;10.50;;;7.15;;
58242;SDS011;50118;53.232;8.252;2023-08-01T04:00:13;14.65;;;7.03;;
58242;SDS011;50118;53.232;8.252;2023-08-01T04:02:42;9.95;;;6.45;;
58242;SDS011;50118;53.232;8.252;2023-08-01T04:05:28;10.98;;;6.30;;
58242;SDS011;50118;53.232;8.252;2023-08-01T04:08:14;9.15;;;5.82;;
58242;SDS011;50118;53.232;8.252;2023-08-01T04:10:40;9.98;;;6.03;;
58242;SDS011;50118;53.232;8.252;2023-08-01T04:13:06;9.30;;;5.60;;
58242;SDS011;50118;53.232;8.252;2023-08-01T04:15:31;8.65;;;5.22;;
58242;SDS011;50118;53.232;8.252;2023-08-01T04:17:57;9.75;;;5.50;;
58242;SDS011;50118;53.232;8.252;2023-08-01T04:20:22;8.65;;;5.18;;
58242;SDS011;50118;53.232;8.252;2023-08-01T04:22:48;8.70;;;4.88;;
58242;SDS011;50118;53.232;8.252;2023-08-01T04:26:16;10.20;;;5.10;;
58242;SDS011;50118;53.232;8.252;2023-08-01T04:32:04;9.00;;;5.28;;
58242;SDS011;50118;53.232;8.252;2023-08-01T04:34:51;9.93;;;5.50;;
58242;SDS011;50118;53.232;8.252;2023-08-01T04:40:12;10.48;;;5.97;;
58242;SDS011;50118;53.232;8.252;2023-08-01T04:42:47;10.25;;;5.85;;
58242;SDS011;50118;53.232;8.252;2023-08-01T04:45:13;10.38;;;5.90;;
58242;SDS011;50118;53.232;8.252;2023-08-01T04:47:42;8.82;;;5.72;;
58242;SDS011;50118;53.232;8.252;2023-08-01T04:50:11;8.90;;;5.32;;
58242;SDS011;50118;53.232;8.252;2023-08-01T04:52:48;9.63;;;5.88;;
58242;SDS011;50118;53.232;8.252;2023-08-01T04:55:14;11.57;;;5.97;;
58242;SDS011;50118;53.232;8.252;2023-08-01T04:57:42;11.00;;;5.70;;
58242;SDS011;50118;53.232;8.252;2023-08-01T05:00:09;10.65;;;6.20;;
58242;SDS011;50118;53.232;8.252;2023-08-01T05:02:35;10.90;;;5.65;;
58242;SDS011;50118;53.232;8.252;2023-08-01T05:05:15;11.60;;;6.28;;
58242;SDS011;50118;53.232;8.252;2023-08-01T05:07:41;10.93;;;5.97;;
58242;SDS011;50118;53.232;8.252;2023-08-01T05:10:35;8.35;;;5.32;;
58242;SDS011;50118;53.232;8.252;2023-08-01T05:13:10;11.90;;;6.00;;
58242;SDS011;50118;53.232;8.252;2023-08-01T05:15:35;9.23;;;5.38;;
58242;SDS011;50118;53.232;8.252;2023-08-01T05:18:03;8.95;;;5.88;;
58242;SDS011;50118;53.232;8.252;2023-08-01T05:20:29;9.40;;;4.68;;
58242;SDS011;50118;53.232;8.252;2023-08-01T05:23:08;6.70;;;4.30;;
58242;SDS011;50118;53.232;8.252;2023-08-01T05:25:34;11.65;;;4.78;;
58242;SDS011;50118;53.232;8.252;2023-08-01T05:27:59;8.32;;;4.70;;
58242;SDS011;50118;53.232;8.252;2023-08-01T05:30:25;12.20;;;5.18;;
58242;SDS011;50118;53.232;8.252;2023-08-01T05:32:50;8.32;;;4.57;;
58242;SDS011;50118;53.232;8.252;2023-08-01T05:35:16;8.27;;;4.47;;
58242;SDS011;50118;53.232;8.252;2023-08-01T05:37:42;8.70;;;4.30;;
58242;SDS011;50118;53.232;8.252;2023-08-01T05:40:08;6.95;;;4.15;;
58242;SDS011;50118;53.232;8.252;2023-08-01T05:42:34;7.75;;;3.83;;
58242;SDS011;50118;53.232;8.252;2023-08-01T05:45:00;9.55;;;4.13;;
58242;SDS011;50118;53.232;8.252;2023-08-01T05:47:25;7.78;;;3.65;;
58242;SDS011;50118;53.232;8.252;2023-08-01T05:49:51;6.93;;;3.70;;
58242;SDS011;50118;53.232;8.252;2023-08-01T05:52:16;8.00;;;4.15;;
58242;SDS011;50118;53.232;8.252;2023-08-01T05:54:41;7.05;;;4.32;;
58242;SDS011;50118;53.232;8.252;2023-08-01T05:57:07;8.60;;;4.38;;
58242;SDS011;50118;53.232;8.252;2023-08-01T05:59:33;6.97;;;4.25;;
58242;SDS011;50118;53.232;8.252;2023-08-01T06:01:58;8.05;;;4.43;;
58242;SDS011;50118;53.232;8.252;2023-08-01T06:04:24;8.40;;;4.63;;
58242;SDS011;50118;53.232;8.252;2023-08-01T06:06:49;7.78;;;4.80;;
58242;SDS011;50118;53.232;8.252;2023-08-01T06:09:15;8.63;;;4.78;;
58242;SDS011;50118;53.232;8.252;2023-08-01T06:11:40;9.23;;;4.97;;
58242;SDS011;50118;53.232;8.252;2023-08-01T06:14:06;9.55;;;5.38;;
58242;SDS011;50118;53.232;8.252;2023-08-01T06:16:31;10.07;;;5.13;;
58242;SDS011;50118;53.232;8.252;2023-08-01T06:18:58;9.23;;;5.35;;
58242;SDS011;50118;53.232;8.252;2023-08-01T06:21:24;9.70;;;5.57;;
58242;SDS011;50118;53.232;8.252;2023-08-01T06:23:49;8.43;;;5.00;;
58242;SDS011;50118;53.232;8.252;2023-08-01T06:26:27;10.27;;;6.18;;
58242;SDS011;50118;53.232;8.252;2023-08-01T06:31:54;9.65;;;5.53;;
58242;SDS011;50118;53.232;8.252;2023-08-01T06:34:32;8.88;;;5.20;;
58242;SDS011;50118;53.232;8.252;2023-08-01T06:37:07;8.43;;;5.10;;
58242;SDS011;50118;53.232;8.252;2023-08-01T06:39:45;10.13;;;4.93;;
58242;SDS011;50118;53.232;8.252;2023-08-01T06:42:20;7.18;;;4.10;;
58242;SDS011;50118;53.232;8.252;2023-08-01T06:45:05;8.48;;;4.20;;
58242;SDS011;50118;53.232;8.252;2023-08-01T06:47:31;7.03;;;3.70;;
58242;SDS011;50118;53.232;8.252;2023-08-01T06:49:56;7.45;;;3.38;;
58242;SDS011;50118;53.232;8.252;2023-08-01T06:52:22;6.53;;;3.10;;
58242;SDS011;50118;53.232;8.252;2023-08-01T06:54:47;4.43;;;2.42;;
58242;SDS011;50118;53.232;8.252;2023-08-01T06:57:13;7.68;;;2.55;;
58242;SDS011;50118;53.232;8.252;2023-08-01T06:59:38;4.68;;;2.70;;
58242;SDS011;50118;53.232;8.252;2023-08-01T07:02:04;6.05;;;2.50;;
58242;SDS011;50118;53.232;8.252;2023-08-01T07:04:40;4.85;;;2.40;;
58242;SDS011;50118;53.232;8.252;2023-08-01T07:07:05;4.95;;;2.30;;
58242;SDS011;50118;53.232;8.252;2023-08-01T07:09:33;5.63;;;2.35;;
58242;SDS011;50118;53.232;8.252;2023-08-01T07:12:19;4.82;;;2.60;;
58242;SDS011;50118;53.232;8.252;2023-08-01T07:14:46;5.60;;;2.08;;
58242;SDS011;50118;53.232;8.252;2023-08-01T07:17:25;5.75;;;2.17;;
58242;SDS011;50118;53.232;8.252;2023-08-01T07:19:50;6.72;;;2.20;;
58242;SDS011;50118;53.232;8.252;2023-08-01T07:22:16;5.18;;;2.22;;
58242;SDS011;50118;53.232;8.252;2023-08-01T07:24:41;6.55;;;2.13;;
58242;SDS011;50118;53.232;8.252;2023-08-01T07:27:16;3.65;;;2.13;;
58242;SDS011;50118;53.232;8.252;2023-08-01T07:29:43;5.32;;;1.90;;
58242;SDS011;50118;53.232;8.252;2023-08-01T07:32:08;4.82;;;2.25;;
58242;SDS011;50118;53.232;8.252;2023-08-01T07:34:33;4.65;;;1.88;;
58242;SDS011;50118;53.232;8.252;2023-08-01T07:36:59;7.05;;;2.20;;
58242;SDS011;50118;53.232;8.252;2023-08-01T07:39:24;4.28;;;2.10;;
58242;SDS011;50118;53.232;8.252;2023-08-01T07:41:50;4.15;;;1.80;;
58242;SDS011;50118;53.232;8.252;2023-08-01T07:44:15;5.45;;;1.83;;
58242;SDS011;50118;53.232;8.252;2023-08-01T07:46:41;5.47;;;1.90;;
58242;SDS011;50118;53.232;8.252;2023-08-01T07:49:06;3.45;;;2.00;;
58242;SDS011;50118;53.232;8.252;2023-08-01T07:51:31;5.90;;;2.20;;
58242;SDS011;50118;53.232;8.252;2023-08-01T07:53:58;6.45;;;2.38;;
58242;SDS011;50118;53.232;8.252;2023-08-01T07:56:25;6.05;;;2.03;;
58242;SDS011;50118;53.232;8.252;2023-08-01T07:58:50;5.25;;;2.30;;
58242;SDS011;50118;53.232;8.252;2023-08-01T08:01:18;6.45;;;2.30;;
58242;SDS011;50118;53.232;8.252;2023-08-01T08:03:44;6.18;;;2.38;;
58242;SDS011;50118;53.232;8.252;2023-08-01T08:06:09;5.82;;;2.28;;
58242;SDS011;50118;53.232;8.252;2023-08-01T08:08:35;6.00;;;2.10;;
58242;SDS011;50118;53.232;8.252;2023-08-01T08:11:02;4.35;;;2.22;;
58242;SDS011;50118;53.232;8.252;2023-08-01T08:13:28;5.13;;;1.92;;
58242;SDS011;50118;53.232;8.252;2023-08-01T08:15:56;4.95;;;2.03;;
58242;SDS011;50118;53.232;8.252;2023-08-01T08:18:23;8.57;;;2.08;;
58242;SDS011;50118;53.232;8.252;2023-08-01T08:20:48;4.90;;;1.80;;
58242;SDS011;50118;53.232;8.252;2023-08-01T08:23:14;2.95;;;1.70;;
58242;SDS011;50118;53.232;8.252;2023-08-01T08:25:40;4.05;;;1.90;;
58242;SDS011;50118;53.232;8.252;2023-08-01T08:28:07;6.10;;;1.90;;
58242;SDS011;50118;53.232;8.252;2023-08-01T08:30:33;3.03;;;1.52;;
58242;SDS011;50118;53.232;8.252;2023-08-01T08:32:58;4.82;;;1.80;;
58242;SDS011;50118;53.232;8.252;2023-08-01T08:35:29;2.63;;;1.40;;
58242;SDS011;50118;53.232;8.252;2023-08-01T08:37:55;3.38;;;1.58;;
58242;SDS011;50118;53.232;8.252;2023-08-01T08:40:20;3.65;;;1.40;;
58242;SDS011;50118;53.232;8.252;2023-08-01T08:42:46;3.80;;;1.80;;
58242;SDS011;50118;53.232;8.252;2023-08-01T08:45:12;2.28;;;1.40;;
58242;SDS011;50118;53.232;8.252;2023-08-01T08:47:43;2.78;;;1.40;;
58242;SDS011;50118;53.232;8.252;2023-08-01T08:50:13;5.40;;;1.70;;
58242;SDS011;50118;53.232;8.252;2023-08-01T08:52:39;3.17;;;1.58;;
58242;SDS011;50118;53.232;8.252;2023-08-01T08:55:05;1.98;;;1.30;;
58242;SDS011;50118;53.232;8.252;2023-08-01T08:57:40;3.08;;;1.30;;
58242;SDS011;50118;53.232;8.252;2023-08-01T09:00:07;3.25;;;1.58;;
58242;SDS011;50118;53.232;8.252;2023-08-01T09:02:33;3.28;;;1.48;;
58242;SDS011;50118;53.232;8.252;2023-08-01T09:04:59;2.50;;;1.40;;
58242;SDS011;50118;53.232;8.252;2023-08-01T09:07:25;3.17;;;1.42;;
58242;SDS011;50118;53.232;8.252;2023-08-01T09:09:54;2.67;;;1.38;;
58242;SDS011;50118;53.232;8.252;2023-08-01T09:12:19;3.28;;;1.20;;
58242;SDS011;50118;53.232;8.252;2023-08-01T09:14:46;3.00;;;1.23;;
58242;SDS011;50118;53.232;8.252;2023-08-01T09:17:15;1.52;;;1.10;;
58242;SDS011;50118;53.232;8.252;2023-08-01T09:19:44;2.85;;;1.30;;
58242;SDS011;50118;53.232;8.252;2023-08-01T09:22:12;4.55;;;1.30;;
58242;SDS011;50118;53.232;8.252;2023-08-01T09:24:39;2.67;;;1.00;;
58242;SDS011;50118;53.232;8.252;2023-08-01T09:27:15;3.95;;;1.20;;
58242;SDS011;50118;53.232;8.252;2023-08-01T09:29:41;3.25;;;1.50;;
58242;SDS011;50118;53.232;8.252;2023-08-01T09:32:13;3.50;;;1.58;;
58242;SDS011;50118;53.232;8.252;2023-08-01T09:34:39;3.25;;;1.10;;
58242;SDS011;50118;53.232;8.252;2023-08-01T09:37:06;2.55;;;1.20;;
58242;SDS011;50118;53.232;8.252;2023-08-01T09:39:31;2.40;;;1.20;;
58242;SDS011;50118;53.232;8.252;2023-08-01T09:44:23;2.05;;;0.95;;
58242;SDS011;50118;53.232;8.252;2023-08-01T09:47:00;2.05;;;1.13;;
58242;SDS011;50118;53.232;8.252;2023-08-01T09:49:27;2.08;;;1.10;;
58242;SDS011;50118;53.232;8.252;2023-08-01T09:51:54;3.25;;;0.98;;
58242;SDS011;50118;53.232;8.252;2023-08-01T09:54:20;2.80;;;1.10;;
58242;SDS011;50118;53.232;8.252;2023-08-01T09:56:47;3.50;;;1.30;;
58242;SDS011;50118;53.232;8.252;2023-08-01T09:59:18;3.58;;;1.30;;
58242;SDS011;50118;53.232;8.252;2023-08-01T10:01:46;2.25;;;1.10;;
58242;SDS011;50118;53.232;8.252;2023-08-01T10:04:15;2.55;;;1.23;;
58242;SDS011;50118;53.232;8.252;2023-08-01T10:06:46;3.03;;;1.45;;
58242;SDS011;50118;53.232;8.252;2023-08-01T10:09:18;4.82;;;1.50;;
58242;SDS011;50118;53.232;8.252;2023-08-01T10:11:46;3.45;;;1.40;;
58242;SDS011;50118;53.232;8.252;2023-08-01T10:14:16;3.92;;;1.63;;
58242;SDS011;50118;53.232;8.252;2023-08-01T10:16:50;2.40;;;1.30;;
58242;SDS011;50118;53.232;8.252;2023-08-01T10:19:17;3.10;;;1.40;;
58242;SDS011;50118;53.232;8.252;2023-08-01T10:21:43;2.60;;;1.48;;
58242;SDS011;50118;53.232;8.252;2023-08-01T10:24:17;3.50;;;1.80;;
58242;SDS011;50118;53.232;8.252;2023-08-01T10:26:44;4.60;;;1.70;;
58242;SDS011;50118;53.232;8.252;2023-08-01T10:29:11;3.55;;;1.60;;
58242;SDS011;50118;53.232;8.252;2023-08-01T10:31:36;2.67;;;1.50;;
58242;SDS011;50118;53.232;8.252;2023-08-01T10:34:06;2.88;;;1.33;;
58242;SDS011;50118;53.232;8.252;2023-08-01T10:36:38;2.40;;;1.35;;
58242;SDS011;50118;53.232;8.252;2023-08-01T10:39:04;4.07;;;1.45;;
58242;SDS011;50118;53.232;8.252;2023-08-01T10:41:31;3.75;;;1.55;;
58242;SDS011;50118;53.232;8.252;2023-08-01T10:44:12;3.85;;;1.50;;
58242;SDS011;50118;53.232;8.252;2023-08-01T10:46:44;4.40;;;1.42;;
58242;SDS011;50118;53.232;8.252;2023-08-01T10:49:21;2.92;;;1.35;;
58242;SDS011;50118;53.232;8.252;2023-08-01T10:52:01;3.28;;;1.30;;
58242;SDS011;50118;53.232;8.252;2023-08-01T10:54:27;1.55;;;1.10;;
58242;SDS011;50118;53.232;8.252;2023-08-01T10:56:53;2.95;;;1.30;;
58242;SDS011;50118;53.232;8.252;2023-08-01T10:59:21;1.70;;;1.13;;
58242;SDS011;50118;53.232;8.252;2023-08-01T11:01:50;3.55;;;1.10;;
58242;SDS011;50118;53.232;8.252;2023-08-01T11:04:18;3.35;;;1.10;;
58242;SDS011;50118;53.232;8.252;2023-08-01T11:06:45;2.67;;;1.08;;
58242;SDS011;50118;53.232;8.252;2023-08-01T11:09:20;2.17;;;0.90;;
58242;SDS011;50118;53.232;8.252;2023-08-01T11:11:48;2.25;;;1.10;;
58242;SDS011;50118;53.232;8.252;2023-08-01T11:14:15;2.92;;;1.15;;
58242;SDS011;50118;53.232;8.252;2023-08-01T11:16:42;2.25;;;1.00;;
58242;SDS011;50118;53.232;8.252;2023-08-01T11:19:18;2.80;;;1.23;;
58242;SDS011;50118;53.232;8.252;2023-08-01T11:21:45;2.60;;;1.08;;
58242;SDS011;50118;53.232;8.252;2023-08-01T11:24:11;3.50;;;1.48;;
58242;SDS011;50118;53.232;8.252;2023-08-01T11:26:40;3.60;;;1.23;;
58242;SDS011;50118;53.232;8.252;2023-08-01T11:29:09;2.53;;;1.30;;
58242;SDS011;50118;53.232;8.252;2023-08-01T11:38:39;2.50;;;1.25;;
58242;SDS011;50118;53.232;8.252;2023-08-01T11:41:05;1.85;;;1.10;;
58242;SDS011;50118;53.232;8.252;2023-08-01T11:43:51;1.75;;;1.20;;
58242;SDS011;50118;53.232;8.252;2023-08-01T11:46:37;3.53;;;1.40;;
58242;SDS011;50118;53.232;8.252;2023-08-01T11:49:04;2.45;;;1.30;;
58242;SDS011;50118;53.232;8.252;2023-08-01T11:51:40;1.63;;;1.10;;
58242;SDS011;50118;53.232;8.252;2023-08-01T11:54:06;2.42;;;1.15;;
58242;SDS011;50118;53.232;8.252;2023-08-01T11:56:32;3.55;;;1.10;;
58242;SDS011;50118;53.232;8.252;2023-08-01T11:58:58;3.33;;;1.20;;
58242;SDS011;50118;53.232;8.252;2023-08-01T12:01:24;2.58;;;1.02;;
58242;SDS011;50118;53.232;8.252;2023-08-01T12:03:54;2.88;;;1.30;;
58242;SDS011;50118;53.232;8.252;2023-08-01T12:06:21;2.90;;;1.45;;
58242;SDS011;50118;53.232;8.252;2023-08-01T12:08:51;3.13;;;1.25;;
58242;SDS011;50118;53.232;8.252;2023-08-01T12:16:26;4.38;;;1.48;;
58242;SDS011;50118;53.232;8.252;2023-08-01T12:18:51;3.25;;;1.10;;
58242;SDS011;50118;53.232;8.252;2023-08-01T12:21:17;2.72;;;1.27;;
58242;SDS011;50118;53.232;8.252;2023-08-01T12:23:42;4.47;;;1.23;;
58242;SDS011;50118;53.232;8.252;2023-08-01T12:26:08;3.15;;;1.33;;
58242;SDS011;50118;53.232;8.252;2023-08-01T12:28:34;2.17;;;1.20;;
58242;SDS011;50118;53.232;8.252;2023-08-01T12:31:00;1.77;;;1.20;;
58242;SDS011;50118;53.232;8.252;2023-08-01T12:33:26;2.85;;;1.20;;
58242;SDS011;50118;53.232;8.252;2023-08-01T12:35:51;3.03;;;1.23;;
58242;SDS011;50118;53.232;8.252;2023-08-01T12:38:16;2.15;;;1.20;;
58242;SDS011;50118;53.232;8.252;2023-08-01T12:40:42;2.88;;;1.33;;
58242;SDS011;50118;53.232;8.252;2023-08-01T12:43:07;2.08;;;1.08;;
58242;SDS011;50118;53.232;8.252;2023-08-01T12:45:33;2.00;;;1.00;;
58242;SDS011;50118;53.232;8.252;2023-08-01T12:47:58;2.80;;;1.00;;
58242;SDS011;50118;53.232;8.252;2023-08-01T12:50:24;3.78;;;1.08;;
58242;SDS011;50118;53.232;8.252;2023-08-01T12:52:49;3.30;;;1.20;;
58242;SDS011;50118;53.232;8.252;2023-08-01T12:55:15;4.22;;;1.10;;
58242;SDS011;50118;53.232;8.252;2023-08-01T12:57:41;2.70;;;1.10;;
58242;SDS011;50118;53.232;8.252;2023-08-01T13:00:07;3.78;;;1.00;;
58242;SDS011;50118;53.232;8.252;2023-08-01T13:02:35;2.92;;;1.13;;
58242;SDS011;50118;53.232;8.252;2023-08-01T13:05:02;2.80;;;1.20;;
58242;SDS011;50118;53.232;8.252;2023-08-01T13:07:28;2.40;;;1.20;;
58242;SDS011;50118;53.232;8.252;2023-08-01T13:09:56;2.50;;;1.20;;
58242;SDS011;50118;53.232;8.252;2023-08-01T13:12:22;3.60;;;1.30;;
58242;SDS011;50118;53.232;8.252;2023-08-01T13:14:47;4.15;;;1.30;;
58242;SDS011;50118;53.232;8.252;2023-08-01T13:17:13;3.30;;;1.50;;
58242;SDS011;50118;53.232;8.252;2023-08-01T13:19:38;3.00;;;1.27;;
58242;SDS011;50118;53.232;8.252;2023-08-01T13:22:05;2.83;;;1.23;;
58242;SDS011;50118;53.232;8.252;2023-08-01T13:24:30;2.53;;;1.38;;
58242;SDS011;50118;53.232;8.252;2023-08-01T13:26:56;2.15;;;1.20;;
58242;SDS011;50118;53.232;8.252;2023-08-01T13:29:23;3.88;;;1.30;;
58242;SDS011;50118;53.232;8.252;2023-08-01T13:31:48;4.10;;;1.35;;
58242;SDS011;50118;53.232;8.252;2023-08-01T13:34:14;3.00;;;1.27;;
58242;SDS011;50118;53.232;8.252;2023-08-01T13:36:40;3.58;;;1.40;;
58242;SDS011;50118;53.232;8.252;2023-08-01T13:39:05;4.20;;;1.40;;
58242;SDS011;50118;53.232;8.252;2023-08-01T13:41:32;3.97;;;1.30;;
58242;SDS011;50118;53.232;8.252;2023-08-01T13:43:58;2.92;;;1.60;;
58242;SDS011;50118;53.232;8.252;2023-08-01T13:46:23;3.90;;;1.50;;
58242;SDS011;50118;53.232;8.252;2023-08-01T13:48:49;4.32;;;1.50;;
58242;SDS011;50118;53.232;8.252;2023-08-01T13:51:15;9.90;;;2.08;;
58242;SDS011;50118;53.232;8.252;2023-08-01T13:53:40;6.20;;;2.00;;
58242;SDS011;50118;53.232;8.252;2023-08-01T13:56:07;7.15;;;2.05;;
58242;SDS011;50118;53.232;8.252;2023-08-01T13:58:47;4.55;;;1.73;;
58242;SDS011;50118;53.232;8.252;2023-08-01T14:01:43;3.47;;;1.77;;
58242;SDS011;50118;53.232;8.252;2023-08-01T14:04:08;3.67;;;1.80;;
58242;SDS011;50118;53.232;8.252;2023-08-01T14:06:45;5.03;;;2.03;;
58242;SDS011;50118;53.232;8.252;2023-08-01T14:12:22;4.75;;;2.03;;
58242;SDS011;50118;53.232;8.252;2023-08-01T14:15:35;4.57;;;1.80;;
58242;SDS011;50118;53.232;8.252;2023-08-01T14:17:38;4.43;;;1.85;;
58242;SDS011;50118;53.232;8.252;2023-08-01T14:20:05;5.78;;;1.90;;
58242;SDS011;50118;53.232;8.252;2023-08-01T14:22:31;4.30;;;2.20;;
58242;SDS011;50118;53.232;8.252;2023-08-01T14:24:56;5.78;;;2.30;;
58242;SDS011;50118;53.232;8.252;2023-08-01T14:27:22;4.85;;;2.10;;
58242;SDS011;50118;53.232;8.252;2023-08-01T14:29:47;4.90;;;2.00;;
58242;SDS011;50118;53.232;8.252;2023-08-01T14:35:42;6.53;;;2.40;;
58242;SDS011;50118;53.232;8.252;2023-08-01T14:38:08;4.72;;;1.92;;
58242;SDS011;50118;53.232;8.252;2023-08-01T14:40:34;4.90;;;2.13;;
58242;SDS011;50118;53.232;8.252;2023-08-01T14:43:00;6.25;;;2.40;;
58242;SDS011;50118;53.232;8.252;2023-08-01T14:45:27;3.22;;;1.80;;
58242;SDS011;50118;53.232;8.252;2023-08-01T14:47:53;3.78;;;2.00;;
58242;SDS011;50118;53.232;8.252;2023-08-01T14:50:18;4.05;;;1.83;;
58242;SDS011;50118;53.232;8.252;2023-08-01T14:52:44;5.38;;;1.90;;
58242;SDS011;50118;53.232;8.252;2023-08-01T14:55:09;5.03;;;1.80;;
58242;SDS011;50118;53.232;8.252;2023-08-01T14:57:35;10.30;;;2.30;;
58242;SDS011;50118;53.232;8.252;2023-08-01T15:00:03;6.40;;;2.28;;
58242;SDS011;50118;53.232;8.252;2023-08-01T15:02:29;6.60;;;2.17;;
58242;SDS011;50118;53.232;8.252;2023-08-01T15:04:58;4.38;;;1.90;;
58242;SDS011;50118;53.232;8.252;2023-08-01T15:07:27;6.38;;;2.10;;
58242;SDS011;50118;53.232;8.252;2023-08-01T15:09:52;6.97;;;2.10;;
58242;SDS011;50118;53.232;8.252;2023-08-01T15:12:20;4.32;;;1.90;;
58242;SDS011;50118;53.232;8.252;2023-08-01T15:14:52;4.47;;;1.90;;
58242;SDS011;50118;53.232;8.252;2023-08-01T15:17:21;4.40;;;2.00;;
58242;SDS011;50118;53.232;8.252;2023-08-01T15:19:47;5.78;;;2.03;;
58242;SDS011;50118;53.232;8.252;2023-08-01T15:22:17;7.32;;;2.50;;
58242;SDS011;50118;53.232;8.252;2023-08-01T15:24:44;6.90;;;2.05;;
58242;SDS011;50118;53.232;8.252;2023-08-01T15:27:10;4.50;;;1.80;;
58242;SDS011;50118;53.232;8.252;2023-08-01T15:29:37;6.00;;;1.65;;
58242;SDS011;50118;53.232;8.252;2023-08-01T15:32:03;4.15;;;1.60;;